createdAt,value
2022-08-12T00:04:49.490Z,100774.56
2022-08-12T00:10:11.978Z,100775.50
2022-08-12T00:15:34.915Z,100793.28
2022-08-12T00:20:55.808Z,100780.78
2022-08-12T00:26:23.362Z,100780.78
2022-08-12T00:31:44.731Z,100782.56
2022-08-12T00:37:13.244Z,100776.31
2022-08-12T00:42:17.279Z,100791.50
2022-08-12T00:47:25.721Z,100782.53
2022-08-12T00:52:28.961Z,100783.38
2022-08-12T00:57:36.949Z,100780.63
2022-08-12T01:02:41.793Z,100791.34
2022-08-12T01:08:03.591Z,100782.28
2022-08-12T01:13:19.079Z,100787.66
2022-08-12T01:18:23.381Z,100776.91
2022-08-12T01:23:41.931Z,100800.13
2022-08-12T01:28:48.373Z,100775.97
2022-08-12T01:34:02.973Z,100780.41
2022-08-12T01:39:06.061Z,100790.22
2022-08-12T01:44:10.639Z,100785.63
2022-08-12T01:49:32.930Z,100779.22
2022-08-12T01:54:40.842Z,100780.19
2022-08-12T01:59:50.042Z,100785.41
2022-08-12T02:05:23.258Z,100778.25
2022-08-12T02:10:53.693Z,100780.00
2022-08-12T02:16:04.514Z,100788.06
2022-08-12T02:21:15.915Z,100788.97
2022-08-12T02:26:19.506Z,100792.41
2022-08-12T02:31:24.847Z,100781.06
2022-08-12T02:36:28.294Z,100778.41
2022-08-12T02:41:36.689Z,100785.53
2022-08-12T02:46:41.688Z,100789.03
2022-08-12T02:51:45.178Z,100780.84
2022-08-12T02:56:50.872Z,100790.31
2022-08-12T03:01:56.849Z,100792.38
2022-08-12T03:07:05.808Z,100786.91
2022-08-12T03:12:09.568Z,100805.19
2022-08-12T03:17:25.850Z,100797.38
2022-08-12T03:22:31.455Z,100801.34
2022-08-12T03:27:34.174Z,100794.56
2022-08-12T03:32:41.453Z,100783.66
2022-08-12T03:37:46.056Z,100782.63
2022-08-12T03:43:07.160Z,100784.63
2022-08-12T03:48:33.750Z,100791.34
2022-08-12T03:53:54.679Z,100787.84
2022-08-12T03:59:17.180Z,100788.72
2022-08-12T04:04:23.469Z,100786.19
2022-08-12T04:09:26.567Z,100787.28
2022-08-12T04:14:29.289Z,100773.91
2022-08-12T04:19:33.426Z,100783.44
2022-08-12T04:24:38.152Z,100793.59
2022-08-12T04:30:16.786Z,100793.44
2022-08-12T04:35:10.201Z,100782.84
2022-08-12T04:40:14.175Z,100792.56
2022-08-12T04:45:19.260Z,100788.38
2022-08-12T04:50:35.897Z,100792.41
2022-08-12T04:55:40.503Z,100796.78
2022-08-12T05:00:43.208Z,100794.31
2022-08-12T05:05:47.754Z,100785.34
2022-08-12T05:10:51.152Z,100780.34
2022-08-12T05:16:04.497Z,100789.13
2022-08-12T05:21:10.681Z,100789.44
2022-08-12T05:26:13.526Z,100790.28
2022-08-12T05:31:41.580Z,100782.75
2022-08-12T05:36:43.690Z,100796.78
2022-08-12T05:41:46.519Z,100797.66
2022-08-12T05:46:49.326Z,100789.91
2022-08-12T05:51:53.449Z,100797.97
2022-08-12T05:56:56.173Z,100805.78
2022-08-12T06:02:13.639Z,100809.28
2022-08-12T06:07:48.711Z,100816.63
2022-08-12T06:12:42.368Z,100818.50
2022-08-12T06:17:46.677Z,100816.78
2022-08-12T06:22:52.596Z,100809.91
2022-08-12T06:28:06.531Z,100812.72
2022-08-12T06:33:22.560Z,100816.38
2022-08-12T06:38:30.630Z,100813.81
2022-08-12T06:44:06.432Z,100813.84
2022-08-12T06:48:59.187Z,100821.94
2022-08-12T06:54:03.818Z,100829.13
2022-08-12T06:59:06.536Z,100821.13
2022-08-12T07:04:33.849Z,100821.19
2022-08-12T07:10:04.463Z,100819.38
2022-08-12T07:14:56.313Z,100819.38
2022-08-12T07:20:03.928Z,100820.25
2022-08-12T07:25:26.887Z,100817.56
2022-08-12T07:30:30.553Z,100826.41
2022-08-12T07:35:34.951Z,100831.75
2022-08-12T07:40:39.157Z,100833.47
2022-08-12T07:45:42.117Z,100832.53
2022-08-12T07:50:44.864Z,100829.63
2022-08-12T07:55:49.066Z,100834.84
2022-08-12T08:00:53.035Z,100837.47
2022-08-12T08:05:56.508Z,100831.97
2022-08-12T08:11:15.150Z,100838.91
2022-08-12T08:16:18.090Z,100827.00
2022-08-12T08:21:21.867Z,100825.16
2022-08-12T08:26:26.945Z,100838.50
2022-08-12T08:31:29.767Z,100823.75
2022-08-12T08:36:32.637Z,100816.25
2022-08-12T08:42:17.445Z,100818.66
2022-08-12T08:47:17.459Z,100834.66
2022-08-12T08:52:39.336Z,100818.06
2022-08-12T08:57:49.331Z,100812.59
2022-08-12T09:02:58.804Z,100811.34
2022-08-12T09:08:12.081Z,100806.88
2022-08-12T09:14:11.930Z,100800.63
2022-08-12T09:18:52.371Z,100796.63
2022-08-12T09:24:05.846Z,100795.94
2022-08-12T09:29:12.003Z,100792.50
2022-08-12T09:34:29.427Z,100791.38
2022-08-12T09:40:05.441Z,100796.13
2022-08-12T09:45:23.208Z,100797.63
2022-08-12T09:50:27.557Z,100803.72
2022-08-12T09:55:59.396Z,100790.28
2022-08-12T10:00:54.845Z,100796.75
2022-08-12T10:06:27.409Z,100782.38
2022-08-12T10:12:10.890Z,100773.06
2022-08-12T10:17:02.347Z,100773.47
2022-08-12T10:22:06.043Z,100766.00
2022-08-12T10:28:03.348Z,100772.66
2022-08-12T10:33:02.574Z,100773.63
2022-08-12T10:38:34.383Z,100766.88
2022-08-12T10:43:55.868Z,100756.34
2022-08-12T10:49:05.956Z,100748.00
2022-08-12T10:54:27.277Z,100744.72
2022-08-12T11:00:32.009Z,100739.44
2022-08-12T11:04:57.978Z,100739.25
2022-08-12T11:10:02.724Z,100732.81
2022-08-12T11:15:14.735Z,100735.63
2022-08-12T11:20:30.805Z,100720.69
2022-08-12T11:25:55.662Z,100716.66
2022-08-12T11:30:56.711Z,100713.34
2022-08-12T11:36:16.280Z,100696.28
2022-08-12T11:41:28.182Z,100688.06
2022-08-12T11:46:36.511Z,100704.31
2022-08-12T11:51:40.633Z,100678.41
2022-08-12T11:56:59.408Z,100671.06
2022-08-12T12:02:05.524Z,100673.72
2022-08-12T12:07:11.499Z,100666.50
2022-08-12T12:12:14.717Z,100657.38
2022-08-12T12:17:18.172Z,100661.38
2022-08-12T12:22:23.629Z,100684.28
2022-08-12T12:27:37.592Z,100663.16
2022-08-12T12:32:53.309Z,100649.34
2022-08-12T12:38:04.911Z,100660.84
2022-08-12T12:43:16.268Z,100653.28
2022-08-12T12:48:31.288Z,100628.28
2022-08-12T12:54:08.129Z,100637.16
2022-08-12T12:58:59.519Z,100623.94
2022-08-12T13:04:03.310Z,100622.13
2022-08-12T13:09:11.164Z,100619.41
2022-08-12T13:14:28.659Z,100613.88
2022-08-12T13:19:46.799Z,100613.69
2022-08-12T13:24:56.873Z,100606.81
2022-08-12T13:30:03.830Z,100599.59
2022-08-12T13:35:19.205Z,100592.38
2022-08-12T13:40:24.845Z,100595.44
2022-08-12T13:45:29.348Z,100589.50
2022-08-12T13:50:33.714Z,100587.81
2022-08-12T13:55:41.297Z,100581.19
2022-08-12T14:00:46.618Z,100573.22
2022-08-12T14:05:52.984Z,100564.03
2022-08-12T14:10:59.819Z,100566.16
2022-08-12T14:16:03.530Z,100564.88
2022-08-12T14:21:12.305Z,100559.03
2022-08-12T14:26:26.323Z,100551.59
2022-08-12T14:31:32.400Z,100546.22
2022-08-12T14:36:35.466Z,100547.53
2022-08-12T14:41:48.521Z,100547.06
2022-08-12T14:47:00.587Z,100543.22
2022-08-12T14:52:43.247Z,100534.28
2022-08-12T14:57:35.426Z,100542.75
2022-08-12T15:02:49.908Z,100530.69
2022-08-12T15:08:00.392Z,100530.81
2022-08-12T15:13:09.564Z,100530.34
2022-08-12T15:18:14.012Z,100535.78
2022-08-12T15:23:17.815Z,100522.06
2022-08-12T15:28:28.043Z,100514.38
2022-08-12T15:33:44.841Z,100527.75
2022-08-12T15:38:50.036Z,100516.34
2022-08-12T15:44:36.770Z,100512.31
2022-08-12T15:49:19.841Z,100515.41
2022-08-12T15:54:35.180Z,100517.31
2022-08-12T16:00:04.100Z,100515.22
2022-08-12T16:05:03.449Z,100517.91
2022-08-12T16:10:30.718Z,100502.41
2022-08-12T16:15:37.778Z,100519.50
2022-08-12T16:20:46.788Z,100501.34
2022-08-12T16:26:05.235Z,100495.56
2022-08-12T16:31:22.656Z,100490.69
2022-08-12T16:36:26.245Z,100488.06
2022-08-12T16:41:29.003Z,100481.28
2022-08-12T16:46:57.984Z,100496.34
2022-08-12T16:52:00.981Z,100466.84
2022-08-12T16:57:05.567Z,100469.50
2022-08-12T17:02:10.456Z,100470.50
2022-08-12T17:07:16.617Z,100472.41
2022-08-12T17:12:19.753Z,100470.16
2022-08-12T17:17:39.108Z,100467.88
2022-08-12T17:22:42.690Z,100461.63
2022-08-12T17:27:46.327Z,100457.59
2022-08-12T17:32:53.257Z,100463.69
2022-08-12T17:37:57.341Z,100462.31
2022-08-12T17:43:02.174Z,100465.06
2022-08-12T17:48:10.206Z,100463.63
2022-08-12T17:53:16.490Z,100458.72
2022-08-12T17:58:23.800Z,100478.91
2022-08-12T18:04:05.355Z,100485.28
2022-08-12T18:09:08.784Z,100487.44
2022-08-12T18:14:12.418Z,100491.25
2022-08-12T18:19:19.876Z,100499.03
2022-08-12T18:24:29.414Z,100502.13
2022-08-12T18:29:42.380Z,100507.00
2022-08-12T18:34:52.760Z,100512.06
2022-08-12T18:40:16.870Z,100513.31
2022-08-12T18:45:21.383Z,100506.53
2022-08-12T18:50:25.542Z,100521.38
2022-08-12T18:55:57.399Z,100514.34
2022-08-12T19:01:02.898Z,100512.94
2022-08-12T19:06:08.347Z,100514.81
2022-08-12T19:11:48.662Z,100521.28
2022-08-12T19:16:52.500Z,100530.84
2022-08-12T19:21:58.085Z,100546.41
2022-08-12T19:27:03.781Z,100529.63
2022-08-12T19:32:11.422Z,100536.00
2022-08-12T19:37:20.208Z,100535.16
2022-08-12T19:42:27.966Z,100527.31
2022-08-12T19:47:31.154Z,100531.13
2022-08-12T19:52:43.544Z,100540.50
2022-08-12T19:58:01.365Z,100543.25
2022-08-12T20:03:07.566Z,100546.13
2022-08-12T20:08:33.023Z,100550.84
2022-08-12T20:13:42.149Z,100561.75
2022-08-12T20:18:57.273Z,100565.53
2022-08-12T20:24:02.141Z,100568.72
2022-08-12T20:29:06.399Z,100565.31
2022-08-12T20:34:12.368Z,100570.53
2022-08-12T20:39:37.356Z,100562.56
2022-08-12T20:44:41.968Z,100568.94
2022-08-12T20:49:45.853Z,100568.97
2022-08-12T20:54:50.826Z,100585.31
2022-08-12T20:59:53.658Z,100578.13
2022-08-12T21:05:19.743Z,100581.75
2022-08-12T21:10:26.469Z,100582.00
2022-08-12T21:15:54.964Z,100582.09
2022-08-12T21:20:54.620Z,100579.59
2022-08-12T21:26:01.440Z,100583.13
2022-08-12T21:32:34.301Z,100589.44
2022-08-12T21:36:34.572Z,100580.50
2022-08-12T21:41:40.550Z,100588.69
2022-08-12T21:46:53.624Z,100596.03
2022-08-12T21:51:56.443Z,100608.66
2022-08-12T21:57:00.485Z,100601.44
2022-08-12T22:02:03.507Z,100598.81
2022-08-12T22:07:06.878Z,100608.78
2022-08-12T22:12:28.594Z,100618.59
2022-08-12T22:17:49.859Z,100605.19
2022-08-12T22:22:55.990Z,100607.91
2022-08-12T22:28:18.131Z,100603.47
2022-08-12T22:33:27.440Z,100605.41
2022-08-12T22:38:30.281Z,100629.56
2022-08-12T22:44:00.551Z,100600.94
2022-08-12T22:49:06.552Z,100595.63
2022-08-12T22:54:37.002Z,100592.91
2022-08-12T22:59:55.900Z,100589.41
2022-08-12T23:04:59.067Z,100593.88
2022-08-12T23:10:02.162Z,100594.78
2022-08-12T23:15:08.068Z,100613.56
2022-08-12T23:20:12.893Z,100591.22
2022-08-12T23:25:18.925Z,100597.47
2022-08-12T23:30:31.800Z,100593.91
2022-08-12T23:35:54.074Z,100588.53
2022-08-12T23:41:01.184Z,100581.41
2022-08-12T23:46:08.618Z,100601.06
2022-08-12T23:51:22.522Z,100591.25
2022-08-12T23:56:26.719Z,100585.84
